sensor_id;sensor_type;location;lat;lon;timestamp;P1;durP1;ratioP1;P2;durP2;ratioP2
71566;SDS011;59403;47.456;19.120;2023-04-24T00:01:26;12.48;;;7.95;;
71566;SDS011;59403;47.456;19.120;2023-04-24T00:03:54;12.10;;;8.85;;
71566;SDS011;59403;47.456;19.120;2023-04-24T00:06:25;11.40;;;8.23;;
71566;SDS011;59403;47.456;19.120;2023-04-24T00:08:58;13.15;;;9.18;;
71566;SDS011;59403;47.456;19.120;2023-04-24T00:11:25;12.13;;;9.57;;
71566;SDS011;59403;47.456;19.120;2023-04-24T00:13:52;17.83;;;13.13;;
71566;SDS011;59403;47.456;19.120;2023-04-24T00:16:19;20.73;;;13.93;;
71566;SDS011;59403;47.456;19.120;2023-04-24T00:18:46;18.13;;;12.93;;
71566;SDS011;59403;47.456;19.120;2023-04-24T00:21:14;19.62;;;13.93;;
71566;SDS011;59403;47.456;19.120;2023-04-24T00:23:44;20.08;;;14.63;;
71566;SDS011;59403;47.456;19.120;2023-04-24T00:26:11;20.40;;;14.80;;
71566;SDS011;59403;47.456;19.120;2023-04-24T00:28:38;26.37;;;15.40;;
71566;SDS011;59403;47.456;19.120;2023-04-24T00:31:05;22.03;;;12.90;;
71566;SDS011;59403;47.456;19.120;2023-04-24T00:33:32;18.10;;;12.45;;
71566;SDS011;59403;47.456;19.120;2023-04-24T00:35:59;12.68;;;9.50;;
71566;SDS011;59403;47.456;19.120;2023-04-24T00:38:26;13.00;;;8.77;;
71566;SDS011;59403;47.456;19.120;2023-04-24T00:40:54;16.75;;;9.48;;
71566;SDS011;59403;47.456;19.120;2023-04-24T00:43:21;11.43;;;8.97;;
71566;SDS011;59403;47.456;19.120;2023-04-24T00:45:48;13.75;;;9.15;;
71566;SDS011;59403;47.456;19.120;2023-04-24T00:48:15;11.90;;;8.43;;
71566;SDS011;59403;47.456;19.120;2023-04-24T00:50:42;12.65;;;8.45;;
71566;SDS011;59403;47.456;19.120;2023-04-24T00:53:10;12.77;;;8.93;;
71566;SDS011;59403;47.456;19.120;2023-04-24T00:55:37;13.47;;;8.47;;
71566;SDS011;59403;47.456;19.120;2023-04-24T00:58:05;10.00;;;7.93;;
71566;SDS011;59403;47.456;19.120;2023-04-24T01:03:54;10.27;;;8.00;;
71566;SDS011;59403;47.456;19.120;2023-04-24T01:06:23;13.18;;;8.50;;
71566;SDS011;59403;47.456;19.120;2023-04-24T01:08:57;12.07;;;8.10;;
71566;SDS011;59403;47.456;19.120;2023-04-24T01:11:26;11.32;;;8.05;;
71566;SDS011;59403;47.456;19.120;2023-04-24T01:13:54;10.25;;;7.53;;
71566;SDS011;59403;47.456;19.120;2023-04-24T01:16:21;10.98;;;7.90;;
71566;SDS011;59403;47.456;19.120;2023-04-24T01:18:49;12.40;;;8.80;;
71566;SDS011;59403;47.456;19.120;2023-04-24T01:21:16;10.97;;;8.13;;
71566;SDS011;59403;47.456;19.120;2023-04-24T01:23:46;14.18;;;8.25;;
71566;SDS011;59403;47.456;19.120;2023-04-24T01:26:15;10.68;;;8.13;;
71566;SDS011;59403;47.456;19.120;2023-04-24T01:28:45;10.65;;;8.65;;
71566;SDS011;59403;47.456;19.120;2023-04-24T01:31:12;12.02;;;8.32;;
71566;SDS011;59403;47.456;19.120;2023-04-24T01:33:39;11.90;;;8.77;;
71566;SDS011;59403;47.456;19.120;2023-04-24T01:36:07;10.35;;;8.25;;
71566;SDS011;59403;47.456;19.120;2023-04-24T01:38:36;11.85;;;8.82;;
71566;SDS011;59403;47.456;19.120;2023-04-24T01:41:05;11.65;;;8.27;;
71566;SDS011;59403;47.456;19.120;2023-04-24T01:43:32;11.90;;;8.38;;
71566;SDS011;59403;47.456;19.120;2023-04-24T01:45:59;11.00;;;8.57;;
71566;SDS011;59403;47.456;19.120;2023-04-24T01:48:25;12.27;;;8.45;;
71566;SDS011;59403;47.456;19.120;2023-04-24T01:50:53;11.70;;;8.45;;
71566;SDS011;59403;47.456;19.120;2023-04-24T01:53:20;11.30;;;8.38;;
71566;SDS011;59403;47.456;19.120;2023-04-24T01:55:47;12.77;;;8.80;;
71566;SDS011;59403;47.456;19.120;2023-04-24T01:58:15;11.10;;;8.80;;
71566;SDS011;59403;47.456;19.120;2023-04-24T02:00:42;12.82;;;9.18;;
71566;SDS011;59403;47.456;19.120;2023-04-24T02:03:09;15.23;;;10.55;;
71566;SDS011;59403;47.456;19.120;2023-04-24T02:05:35;13.62;;;10.18;;
71566;SDS011;59403;47.456;19.120;2023-04-24T02:08:02;15.15;;;11.12;;
71566;SDS011;59403;47.456;19.120;2023-04-24T02:10:29;15.40;;;10.57;;
71566;SDS011;59403;47.456;19.120;2023-04-24T02:12:56;15.35;;;10.57;;
71566;SDS011;59403;47.456;19.120;2023-04-24T02:15:26;17.48;;;11.32;;
71566;SDS011;59403;47.456;19.120;2023-04-24T02:17:52;14.02;;;10.73;;
71566;SDS011;59403;47.456;19.120;2023-04-24T02:20:19;17.25;;;12.15;;
71566;SDS011;59403;47.456;19.120;2023-04-24T02:22:46;13.87;;;11.23;;
71566;SDS011;59403;47.456;19.120;2023-04-24T02:25:13;17.12;;;11.73;;
71566;SDS011;59403;47.456;19.120;2023-04-24T02:27:40;15.35;;;11.75;;
71566;SDS011;59403;47.456;19.120;2023-04-24T02:30:07;15.65;;;11.52;;
71566;SDS011;59403;47.456;19.120;2023-04-24T02:32:36;15.07;;;11.82;;
71566;SDS011;59403;47.456;19.120;2023-04-24T02:35:04;17.73;;;11.63;;
71566;SDS011;59403;47.456;19.120;2023-04-24T02:37:32;15.20;;;10.27;;
71566;SDS011;59403;47.456;19.120;2023-04-24T02:39:59;13.20;;;10.32;;
71566;SDS011;59403;47.456;19.120;2023-04-24T02:42:25;14.95;;;11.70;;
71566;SDS011;59403;47.456;19.120;2023-04-24T02:44:52;15.32;;;11.57;;
71566;SDS011;59403;47.456;19.120;2023-04-24T02:47:19;12.40;;;10.93;;
71566;SDS011;59403;47.456;19.120;2023-04-24T02:49:47;13.57;;;10.68;;
71566;SDS011;59403;47.456;19.120;2023-04-24T02:52:14;13.45;;;11.00;;
71566;SDS011;59403;47.456;19.120;2023-04-24T02:54:41;14.18;;;11.23;;
71566;SDS011;59403;47.456;19.120;2023-04-24T02:57:08;16.55;;;11.55;;
71566;SDS011;59403;47.456;19.120;2023-04-24T02:59:35;15.53;;;11.27;;
71566;SDS011;59403;47.456;19.120;2023-04-24T03:02:02;14.15;;;11.50;;
71566;SDS011;59403;47.456;19.120;2023-04-24T03:04:29;16.02;;;12.20;;
71566;SDS011;59403;47.456;19.120;2023-04-24T03:06:57;15.43;;;11.88;;
71566;SDS011;59403;47.456;19.120;2023-04-24T03:09:24;15.77;;;12.32;;
71566;SDS011;59403;47.456;19.120;2023-04-24T03:11:50;13.33;;;11.40;;
71566;SDS011;59403;47.456;19.120;2023-04-24T03:14:17;17.23;;;13.00;;
71566;SDS011;59403;47.456;19.120;2023-04-24T03:16:44;14.63;;;11.20;;
71566;SDS011;59403;47.456;19.120;2023-04-24T03:19:11;17.95;;;12.15;;
71566;SDS011;59403;47.456;19.120;2023-04-24T03:21:38;15.25;;;11.85;;
71566;SDS011;59403;47.456;19.120;2023-04-24T03:24:07;12.70;;;10.70;;
71566;SDS011;59403;47.456;19.120;2023-04-24T03:26:34;15.85;;;11.98;;
71566;SDS011;59403;47.456;19.120;2023-04-24T03:29:01;16.33;;;12.07;;
71566;SDS011;59403;47.456;19.120;2023-04-24T03:31:28;15.32;;;11.93;;
71566;SDS011;59403;47.456;19.120;2023-04-24T03:33:55;15.82;;;12.55;;
71566;SDS011;59403;47.456;19.120;2023-04-24T03:36:22;15.47;;;11.47;;
71566;SDS011;59403;47.456;19.120;2023-04-24T03:38:49;16.55;;;12.82;;
71566;SDS011;59403;47.456;19.120;2023-04-24T03:41:17;15.13;;;12.30;;
71566;SDS011;59403;47.456;19.120;2023-04-24T03:43:44;16.05;;;11.63;;
71566;SDS011;59403;47.456;19.120;2023-04-24T03:46:11;14.82;;;11.50;;
71566;SDS011;59403;47.456;19.120;2023-04-24T03:48:37;15.67;;;12.43;;
71566;SDS011;59403;47.456;19.120;2023-04-24T03:51:04;14.40;;;11.68;;
71566;SDS011;59403;47.456;19.120;2023-04-24T03:53:31;17.17;;;11.77;;
71566;SDS011;59403;47.456;19.120;2023-04-24T03:55:58;15.13;;;11.93;;
71566;SDS011;59403;47.456;19.120;2023-04-24T03:58:26;18.85;;;12.70;;
71566;SDS011;59403;47.456;19.120;2023-04-24T04:00:53;16.53;;;11.80;;
71566;SDS011;59403;47.456;19.120;2023-04-24T04:03:22;17.12;;;12.07;;
71566;SDS011;59403;47.456;19.120;2023-04-24T04:05:48;19.10;;;12.75;;
71566;SDS011;59403;47.456;19.120;2023-04-24T04:08:15;17.33;;;11.40;;
71566;SDS011;59403;47.456;19.120;2023-04-24T04:10:42;15.18;;;11.73;;
71566;SDS011;59403;47.456;19.120;2023-04-24T04:13:09;15.67;;;11.20;;
71566;SDS011;59403;47.456;19.120;2023-04-24T04:15:38;13.68;;;11.57;;
71566;SDS011;59403;47.456;19.120;2023-04-24T04:18:04;16.73;;;13.10;;
71566;SDS011;59403;47.456;19.120;2023-04-24T04:20:31;14.30;;;11.63;;
71566;SDS011;59403;47.456;19.120;2023-04-24T04:22:58;15.15;;;11.43;;
71566;SDS011;59403;47.456;19.120;2023-04-24T04:25:25;15.63;;;10.70;;
71566;SDS011;59403;47.456;19.120;2023-04-24T04:27:52;14.55;;;11.15;;
71566;SDS011;59403;47.456;19.120;2023-04-24T04:30:19;16.80;;;11.63;;
71566;SDS011;59403;47.456;19.120;2023-04-24T04:32:47;15.48;;;10.90;;
71566;SDS011;59403;47.456;19.120;2023-04-24T04:35:14;13.62;;;11.35;;
71566;SDS011;59403;47.456;19.120;2023-04-24T04:37:41;16.00;;;10.40;;
71566;SDS011;59403;47.456;19.120;2023-04-24T04:40:08;12.82;;;10.93;;
71566;SDS011;59403;47.456;19.120;2023-04-24T04:42:37;14.63;;;11.32;;
71566;SDS011;59403;47.456;19.120;2023-04-24T04:45:05;15.93;;;10.88;;
71566;SDS011;59403;47.456;19.120;2023-04-24T04:47:34;13.93;;;11.18;;
71566;SDS011;59403;47.456;19.120;2023-04-24T04:50:03;15.77;;;12.07;;
71566;SDS011;59403;47.456;19.120;2023-04-24T04:52:30;13.95;;;10.43;;
71566;SDS011;59403;47.456;19.120;2023-04-24T04:54:57;16.95;;;11.15;;
71566;SDS011;59403;47.456;19.120;2023-04-24T04:57:24;13.73;;;10.02;;
71566;SDS011;59403;47.456;19.120;2023-04-24T04:59:51;15.05;;;10.82;;
71566;SDS011;59403;47.456;19.120;2023-04-24T05:02:18;13.40;;;10.43;;
71566;SDS011;59403;47.456;19.120;2023-04-24T05:04:45;14.60;;;10.80;;
71566;SDS011;59403;47.456;19.120;2023-04-24T05:07:13;16.90;;;10.52;;
71566;SDS011;59403;47.456;19.120;2023-04-24T05:09:40;16.52;;;11.12;;
71566;SDS011;59403;47.456;19.120;2023-04-24T05:12:07;16.05;;;11.55;;
71566;SDS011;59403;47.456;19.120;2023-04-24T05:14:34;14.80;;;10.33;;
71566;SDS011;59403;47.456;19.120;2023-04-24T05:17:01;17.27;;;11.02;;
71566;SDS011;59403;47.456;19.120;2023-04-24T05:19:28;19.98;;;11.45;;
71566;SDS011;59403;47.456;19.120;2023-04-24T05:21:55;14.40;;;10.70;;
71566;SDS011;59403;47.456;19.120;2023-04-24T05:24:23;15.10;;;10.77;;
71566;SDS011;59403;47.456;19.120;2023-04-24T05:26:50;15.70;;;10.67;;
71566;SDS011;59403;47.456;19.120;2023-04-24T05:29:17;18.00;;;11.23;;
71566;SDS011;59403;47.456;19.120;2023-04-24T05:31:44;13.95;;;11.02;;
71566;SDS011;59403;47.456;19.120;2023-04-24T05:34:11;17.25;;;10.05;;
71566;SDS011;59403;47.456;19.120;2023-04-24T05:36:37;13.88;;;9.75;;
71566;SDS011;59403;47.456;19.120;2023-04-24T05:39:04;17.00;;;10.93;;
71566;SDS011;59403;47.456;19.120;2023-04-24T05:41:33;15.57;;;10.80;;
71566;SDS011;59403;47.456;19.120;2023-04-24T05:43:59;12.68;;;9.88;;
71566;SDS011;59403;47.456;19.120;2023-04-24T05:46:26;12.57;;;10.00;;
71566;SDS011;59403;47.456;19.120;2023-04-24T05:48:53;13.60;;;11.55;;
71566;SDS011;59403;47.456;19.120;2023-04-24T05:51:20;16.93;;;10.00;;
71566;SDS011;59403;47.456;19.120;2023-04-24T05:53:47;13.55;;;8.95;;
71566;SDS011;59403;47.456;19.120;2023-04-24T05:56:14;12.68;;;8.98;;
71566;SDS011;59403;47.456;19.120;2023-04-24T05:58:51;14.00;;;9.40;;
71566;SDS011;59403;47.456;19.120;2023-04-24T06:01:18;13.85;;;10.05;;
71566;SDS011;59403;47.456;19.120;2023-04-24T06:03:45;10.70;;;9.37;;
71566;SDS011;59403;47.456;19.120;2023-04-24T06:06:12;14.07;;;10.15;;
71566;SDS011;59403;47.456;19.120;2023-04-24T06:08:39;15.75;;;9.95;;
71566;SDS011;59403;47.456;19.120;2023-04-24T06:11:07;12.63;;;9.85;;
71566;SDS011;59403;47.456;19.120;2023-04-24T06:13:34;13.45;;;9.90;;
71566;SDS011;59403;47.456;19.120;2023-04-24T06:16:02;14.53;;;9.00;;
71566;SDS011;59403;47.456;19.120;2023-04-24T06:18:29;13.52;;;9.23;;
71566;SDS011;59403;47.456;19.120;2023-04-24T06:20:56;14.57;;;9.57;;
71566;SDS011;59403;47.456;19.120;2023-04-24T06:23:23;15.95;;;9.63;;
71566;SDS011;59403;47.456;19.120;2023-04-24T06:25:50;13.40;;;10.48;;
71566;SDS011;59403;47.456;19.120;2023-04-24T06:28:17;15.07;;;9.87;;
71566;SDS011;59403;47.456;19.120;2023-04-24T06:30:44;12.63;;;9.70;;
71566;SDS011;59403;47.456;19.120;2023-04-24T06:33:12;13.43;;;10.05;;
71566;SDS011;59403;47.456;19.120;2023-04-24T06:35:39;14.87;;;10.50;;
71566;SDS011;59403;47.456;19.120;2023-04-24T06:38:06;12.98;;;9.68;;
71566;SDS011;59403;47.456;19.120;2023-04-24T06:40:33;14.73;;;10.23;;
71566;SDS011;59403;47.456;19.120;2023-04-24T06:43:00;18.52;;;11.35;;
71566;SDS011;59403;47.456;19.120;2023-04-24T06:45:28;16.23;;;11.07;;
71566;SDS011;59403;47.456;19.120;2023-04-24T06:47:54;15.52;;;10.77;;
71566;SDS011;59403;47.456;19.120;2023-04-24T06:50:23;15.57;;;10.68;;
71566;SDS011;59403;47.456;19.120;2023-04-24T06:52:50;13.60;;;11.13;;
71566;SDS011;59403;47.456;19.120;2023-04-24T06:55:17;14.25;;;10.93;;
71566;SDS011;59403;47.456;19.120;2023-04-24T06:57:44;15.25;;;11.55;;
71566;SDS011;59403;47.456;19.120;2023-04-24T07:00:11;13.32;;;10.30;;
71566;SDS011;59403;47.456;19.120;2023-04-24T07:02:39;14.38;;;11.23;;
71566;SDS011;59403;47.456;19.120;2023-04-24T07:05:06;20.57;;;12.07;;
71566;SDS011;59403;47.456;19.120;2023-04-24T07:07:35;16.00;;;11.23;;
71566;SDS011;59403;47.456;19.120;2023-04-24T07:10:03;14.30;;;11.25;;
71566;SDS011;59403;47.456;19.120;2023-04-24T07:12:30;16.00;;;11.05;;
71566;SDS011;59403;47.456;19.120;2023-04-24T07:14:57;16.95;;;11.90;;
71566;SDS011;59403;47.456;19.120;2023-04-24T07:17:24;13.87;;;11.40;;
71566;SDS011;59403;47.456;19.120;2023-04-24T07:19:51;15.18;;;11.73;;
71566;SDS011;59403;47.456;19.120;2023-04-24T07:22:18;16.98;;;12.23;;
71566;SDS011;59403;47.456;19.120;2023-04-24T07:24:46;15.18;;;11.10;;
71566;SDS011;59403;47.456;19.120;2023-04-24T07:27:13;13.43;;;11.00;;
71566;SDS011;59403;47.456;19.120;2023-04-24T07:29:40;18.50;;;11.13;;
71566;SDS011;59403;47.456;19.120;2023-04-24T07:32:07;14.65;;;11.50;;
71566;SDS011;59403;47.456;19.120;2023-04-24T07:34:34;15.68;;;12.07;;
71566;SDS011;59403;47.456;19.120;2023-04-24T07:37:01;22.02;;;12.15;;
71566;SDS011;59403;47.456;19.120;2023-04-24T07:39:28;16.20;;;11.85;;
71566;SDS011;59403;47.456;19.120;2023-04-24T07:41:56;16.47;;;11.60;;
71566;SDS011;59403;47.456;19.120;2023-04-24T07:44:24;15.93;;;12.23;;
71566;SDS011;59403;47.456;19.120;2023-04-24T07:46:52;18.90;;;13.68;;
71566;SDS011;59403;47.456;19.120;2023-04-24T07:49:19;17.17;;;13.73;;
71566;SDS011;59403;47.456;19.120;2023-04-24T07:51:45;18.50;;;12.52;;
71566;SDS011;59403;47.456;19.120;2023-04-24T07:54:12;17.67;;;12.70;;
71566;SDS011;59403;47.456;19.120;2023-04-24T07:56:40;16.75;;;13.00;;
71566;SDS011;59403;47.456;19.120;2023-04-24T07:59:09;17.90;;;12.65;;
71566;SDS011;59403;47.456;19.120;2023-04-24T08:01:39;19.15;;;11.80;;
71566;SDS011;59403;47.456;19.120;2023-04-24T08:04:07;17.62;;;12.52;;
71566;SDS011;59403;47.456;19.120;2023-04-24T08:06:34;17.03;;;11.40;;
71566;SDS011;59403;47.456;19.120;2023-04-24T08:09:01;17.00;;;11.25;;
71566;SDS011;59403;47.456;19.120;2023-04-24T08:11:28;16.23;;;9.80;;
71566;SDS011;59403;47.456;19.120;2023-04-24T08:13:54;11.38;;;8.98;;
71566;SDS011;59403;47.456;19.120;2023-04-24T08:16:23;14.93;;;10.07;;
71566;SDS011;59403;47.456;19.120;2023-04-24T08:18:50;14.23;;;10.13;;
71566;SDS011;59403;47.456;19.120;2023-04-24T08:21:17;13.85;;;9.55;;
71566;SDS011;59403;47.456;19.120;2023-04-24T08:23:44;14.27;;;10.45;;
71566;SDS011;59403;47.456;19.120;2023-04-24T08:26:12;14.25;;;9.88;;
71566;SDS011;59403;47.456;19.120;2023-04-24T08:28:39;14.48;;;10.02;;
71566;SDS011;59403;47.456;19.120;2023-04-24T08:31:06;11.47;;;9.70;;
71566;SDS011;59403;47.456;19.120;2023-04-24T08:33:34;13.27;;;10.32;;
71566;SDS011;59403;47.456;19.120;2023-04-24T08:36:02;12.65;;;10.23;;
71566;SDS011;59403;47.456;19.120;2023-04-24T08:38:29;14.43;;;10.65;;
71566;SDS011;59403;47.456;19.120;2023-04-24T08:40:57;13.00;;;10.30;;
71566;SDS011;59403;47.456;19.120;2023-04-24T08:43:25;13.77;;;10.20;;
71566;SDS011;59403;47.456;19.120;2023-04-24T08:45:54;13.48;;;9.57;;
71566;SDS011;59403;47.456;19.120;2023-04-24T08:48:22;12.43;;;10.10;;
71566;SDS011;59403;47.456;19.120;2023-04-24T08:50:51;12.63;;;9.45;;
71566;SDS011;59403;47.456;19.120;2023-04-24T08:53:18;12.90;;;9.63;;
71566;SDS011;59403;47.456;19.120;2023-04-24T08:55:46;11.13;;;8.43;;
71566;SDS011;59403;47.456;19.120;2023-04-24T08:58:15;13.52;;;9.57;;
71566;SDS011;59403;47.456;19.120;2023-04-24T09:00:43;14.63;;;9.30;;
71566;SDS011;59403;47.456;19.120;2023-04-24T09:03:12;11.77;;;8.90;;
71566;SDS011;59403;47.456;19.120;2023-04-24T09:05:40;11.98;;;9.85;;
71566;SDS011;59403;47.456;19.120;2023-04-24T09:08:12;9.80;;;8.53;;
71566;SDS011;59403;47.456;19.120;2023-04-24T09:10:39;11.77;;;8.02;;
71566;SDS011;59403;47.456;19.120;2023-04-24T09:13:07;13.80;;;9.32;;
71566;SDS011;59403;47.456;19.120;2023-04-24T09:15:37;16.12;;;9.15;;
71566;SDS011;59403;47.456;19.120;2023-04-24T09:18:05;9.93;;;7.87;;
71566;SDS011;59403;47.456;19.120;2023-04-24T09:20:32;11.63;;;8.07;;
71566;SDS011;59403;47.456;19.120;2023-04-24T09:23:01;9.73;;;7.68;;
71566;SDS011;59403;47.456;19.120;2023-04-24T09:25:32;9.90;;;7.82;;
71566;SDS011;59403;47.456;19.120;2023-04-24T09:28:00;13.27;;;8.48;;
71566;SDS011;59403;47.456;19.120;2023-04-24T09:30:28;9.68;;;7.43;;
71566;SDS011;59403;47.456;19.120;2023-04-24T09:35:40;9.80;;;7.07;;
71566;SDS011;59403;47.456;19.120;2023-04-24T09:38:08;9.45;;;8.05;;
71566;SDS011;59403;47.456;19.120;2023-04-24T09:40:36;10.10;;;7.87;;
71566;SDS011;59403;47.456;19.120;2023-04-24T09:43:04;10.05;;;8.30;;
71566;SDS011;59403;47.456;19.120;2023-04-24T09:45:36;12.27;;;8.20;;
71566;SDS011;59403;47.456;19.120;2023-04-24T09:48:04;14.10;;;8.85;;
71566;SDS011;59403;47.456;19.120;2023-04-24T09:50:32;10.65;;;7.82;;
71566;SDS011;59403;47.456;19.120;2023-04-24T09:53:02;7.80;;;6.50;;
71566;SDS011;59403;47.456;19.120;2023-04-24T09:55:30;10.05;;;7.12;;
71566;SDS011;59403;47.456;19.120;2023-04-24T09:57:59;8.67;;;6.57;;
71566;SDS011;59403;47.456;19.120;2023-04-24T10:00:27;8.65;;;7.30;;
71566;SDS011;59403;47.456;19.120;2023-04-24T10:02:55;10.57;;;7.57;;
71566;SDS011;59403;47.456;19.120;2023-04-24T10:05:24;10.95;;;7.65;;
71566;SDS011;59403;47.456;19.120;2023-04-24T10:07:55;8.93;;;6.75;;
71566;SDS011;59403;47.456;19.120;2023-04-24T10:10:23;11.60;;;7.30;;
71566;SDS011;59403;47.456;19.120;2023-04-24T10:12:50;9.07;;;6.05;;
71566;SDS011;59403;47.456;19.120;2023-04-24T10:15:19;8.13;;;6.35;;
71566;SDS011;59403;47.456;19.120;2023-04-24T10:17:47;9.43;;;6.25;;
71566;SDS011;59403;47.456;19.120;2023-04-24T10:20:17;8.55;;;5.85;;
71566;SDS011;59403;47.456;19.120;2023-04-24T10:22:46;8.20;;;5.40;;
71566;SDS011;59403;47.456;19.120;2023-04-24T10:25:16;7.75;;;6.00;;
71566;SDS011;59403;47.456;19.120;2023-04-24T10:27:44;11.73;;;6.37;;
71566;SDS011;59403;47.456;19.120;2023-04-24T10:30:13;10.05;;;5.95;;
71566;SDS011;59403;47.456;19.120;2023-04-24T10:32:42;7.55;;;6.20;;
71566;SDS011;59403;47.456;19.120;2023-04-24T10:35:09;9.70;;;6.40;;
71566;SDS011;59403;47.456;19.120;2023-04-24T10:37:40;9.38;;;6.57;;
71566;SDS011;59403;47.456;19.120;2023-04-24T10:40:09;12.15;;;7.18;;
71566;SDS011;59403;47.456;19.120;2023-04-24T10:42:39;10.25;;;7.30;;
71566;SDS011;59403;47.456;19.120;2023-04-24T10:45:15;11.35;;;7.68;;
71566;SDS011;59403;47.456;19.120;2023-04-24T10:47:45;11.10;;;7.30;;
71566;SDS011;59403;47.456;19.120;2023-04-24T10:50:18;9.90;;;6.15;;
71566;SDS011;59403;47.456;19.120;2023-04-24T10:52:45;10.40;;;7.10;;
71566;SDS011;59403;47.456;19.120;2023-04-24T10:55:14;9.45;;;6.85;;
71566;SDS011;59403;47.456;19.120;2023-04-24T11:00:36;12.70;;;7.80;;
71566;SDS011;59403;47.456;19.120;2023-04-24T11:03:05;10.90;;;8.13;;
71566;SDS011;59403;47.456;19.120;2023-04-24T11:05:49;9.82;;;7.45;;
71566;SDS011;59403;47.456;19.120;2023-04-24T11:08:26;15.95;;;7.43;;
71566;SDS011;59403;47.456;19.120;2023-04-24T11:10:58;16.40;;;7.60;;
71566;SDS011;59403;47.456;19.120;2023-04-24T11:16:31;12.05;;;8.13;;
71566;SDS011;59403;47.456;19.120;2023-04-24T11:19:11;12.57;;;7.57;;
71566;SDS011;59403;47.456;19.120;2023-04-24T11:21:46;11.02;;;7.65;;
71566;SDS011;59403;47.456;19.120;2023-04-24T11:24:23;13.65;;;8.23;;
71566;SDS011;59403;47.456;19.120;2023-04-24T11:26:54;11.70;;;8.40;;
71566;SDS011;59403;47.456;19.120;2023-04-24T11:29:22;12.85;;;8.43;;
71566;SDS011;59403;47.456;19.120;2023-04-24T11:31:49;12.50;;;9.30;;
71566;SDS011;59403;47.456;19.120;2023-04-24T11:34:18;11.00;;;7.97;;
71566;SDS011;59403;47.456;19.120;2023-04-24T11:36:45;11.50;;;8.40;;
71566;SDS011;59403;47.456;19.120;2023-04-24T11:39:13;10.90;;;8.00;;
71566;SDS011;59403;47.456;19.120;2023-04-24T11:41:40;11.30;;;9.15;;
71566;SDS011;59403;47.456;19.120;2023-04-24T11:44:08;12.48;;;9.45;;
71566;SDS011;59403;47.456;19.120;2023-04-24T11:46:36;12.80;;;9.55;;
71566;SDS011;59403;47.456;19.120;2023-04-24T11:49:05;13.80;;;9.18;;
71566;SDS011;59403;47.456;19.120;2023-04-24T11:51:33;15.70;;;9.47;;
71566;SDS011;59403;47.456;19.120;2023-04-24T11:54:00;11.20;;;9.18;;
71566;SDS011;59403;47.456;19.120;2023-04-24T11:56:28;11.05;;;9.30;;
71566;SDS011;59403;47.456;19.120;2023-04-24T11:58:55;18.35;;;9.50;;
71566;SDS011;59403;47.456;19.120;2023-04-24T12:01:22;10.55;;;8.75;;
71566;SDS011;59403;47.456;19.120;2023-04-24T12:03:49;13.40;;;9.00;;
71566;SDS011;59403;47.456;19.120;2023-04-24T12:06:16;13.02;;;8.75;;
71566;SDS011;59403;47.456;19.120;2023-04-24T12:08:47;12.55;;;9.50;;
71566;SDS011;59403;47.456;19.120;2023-04-24T12:11:15;11.60;;;8.40;;
71566;SDS011;59403;47.456;19.120;2023-04-24T12:13:44;12.40;;;7.85;;
71566;SDS011;59403;47.456;19.120;2023-04-24T12:16:11;13.73;;;8.37;;
71566;SDS011;59403;47.456;19.120;2023-04-24T12:18:42;11.27;;;7.50;;
71566;SDS011;59403;47.456;19.120;2023-04-24T12:21:16;10.43;;;6.95;;
71566;SDS011;59403;47.456;19.120;2023-04-24T12:23:47;8.55;;;6.37;;
71566;SDS011;59403;47.456;19.120;2023-04-24T12:26:16;12.13;;;7.72;;
71566;SDS011;59403;47.456;19.120;2023-04-24T12:28:46;11.03;;;7.37;;
71566;SDS011;59403;47.456;19.120;2023-04-24T12:31:14;14.82;;;8.48;;
71566;SDS011;59403;47.456;19.120;2023-04-24T12:33:42;11.45;;;8.40;;
71566;SDS011;59403;47.456;19.120;2023-04-24T12:36:09;10.02;;;7.75;;
71566;SDS011;59403;47.456;19.120;2023-04-24T12:38:38;11.73;;;8.27;;
71566;SDS011;59403;47.456;19.120;2023-04-24T12:41:08;10.20;;;7.40;;
71566;SDS011;59403;47.456;19.120;2023-04-24T12:43:36;9.75;;;7.12;;
71566;SDS011;59403;47.456;19.120;2023-04-24T12:46:03;9.73;;;6.78;;
71566;SDS011;59403;47.456;19.120;2023-04-24T12:48:30;11.18;;;6.87;;
71566;SDS011;59403;47.456;19.120;2023-04-24T12:50:58;10.85;;;7.97;;
71566;SDS011;59403;47.456;19.120;2023-04-24T12:53:27;8.93;;;6.33;;
71566;SDS011;59403;47.456;19.120;2023-04-24T12:55:56;7.45;;;6.15;;
71566;SDS011;59403;47.456;19.120;2023-04-24T12:58:25;7.30;;;5.05;;
71566;SDS011;59403;47.456;19.120;2023-04-24T13:00:51;6.20;;;5.22;;
71566;SDS011;59403;47.456;19.120;2023-04-24T13:03:19;6.53;;;4.10;;
71566;SDS011;59403;47.456;19.120;2023-04-24T13:05:47;6.93;;;4.63;;
71566;SDS011;59403;47.456;19.120;2023-04-24T13:08:14;7.03;;;4.15;;
71566;SDS011;59403;47.456;19.120;2023-04-24T13:10:41;7.18;;;4.30;;
71566;SDS011;59403;47.456;19.120;2023-04-24T13:13:08;5.45;;;3.92;;
71566;SDS011;59403;47.456;19.120;2023-04-24T13:15:36;6.65;;;4.03;;
71566;SDS011;59403;47.456;19.120;2023-04-24T13:18:03;6.10;;;3.57;;
71566;SDS011;59403;47.456;19.120;2023-04-24T13:20:30;7.72;;;4.00;;
71566;SDS011;59403;47.456;19.120;2023-04-24T13:22:57;6.20;;;3.78;;
71566;SDS011;59403;47.456;19.120;2023-04-24T13:25:25;8.00;;;3.72;;
71566;SDS011;59403;47.456;19.120;2023-04-24T13:27:52;9.02;;;4.20;;
71566;SDS011;59403;47.456;19.120;2023-04-24T13:30:19;6.80;;;3.77;;
71566;SDS011;59403;47.456;19.120;2023-04-24T13:32:47;9.75;;;4.50;;
71566;SDS011;59403;47.456;19.120;2023-04-24T13:35:14;7.55;;;4.15;;
71566;SDS011;59403;47.456;19.120;2023-04-24T13:37:41;8.38;;;4.03;;
71566;SDS011;59403;47.456;19.120;2023-04-24T13:40:08;6.07;;;3.35;;
71566;SDS011;59403;47.456;19.120;2023-04-24T13:42:36;5.03;;;3.83;;
71566;SDS011;59403;47.456;19.120;2023-04-24T13:45:03;7.47;;;3.72;;
71566;SDS011;59403;47.456;19.120;2023-04-24T13:47:30;7.82;;;3.80;;
71566;SDS011;59403;47.456;19.120;2023-04-24T13:49:58;5.95;;;3.45;;
71566;SDS011;59403;47.456;19.120;2023-04-24T13:52:25;5.57;;;3.87;;
71566;SDS011;59403;47.456;19.120;2023-04-24T13:54:52;6.20;;;4.03;;
71566;SDS011;59403;47.456;19.120;2023-04-24T13:57:20;5.22;;;3.83;;
71566;SDS011;59403;47.456;19.120;2023-04-24T13:59:47;5.50;;;3.70;;
71566;SDS011;59403;47.456;19.120;2023-04-24T14:02:14;5.70;;;3.70;;
71566;SDS011;59403;47.456;19.120;2023-04-24T14:04:41;5.95;;;4.20;;
71566;SDS011;59403;47.456;19.120;2023-04-24T14:07:09;5.40;;;3.53;;
71566;SDS011;59403;47.456;19.120;2023-04-24T14:09:38;4.95;;;3.75;;
71566;SDS011;59403;47.456;19.120;2023-04-24T14:12:04;7.00;;;4.20;;
71566;SDS011;59403;47.456;19.120;2023-04-24T14:14:32;6.37;;;4.20;;
71566;SDS011;59403;47.456;19.120;2023-04-24T14:16:59;8.80;;;4.50;;
71566;SDS011;59403;47.456;19.120;2023-04-24T14:19:25;7.97;;;4.03;;
71566;SDS011;59403;47.456;19.120;2023-04-24T14:21:52;6.68;;;4.05;;
71566;SDS011;59403;47.456;19.120;2023-04-24T14:24:22;8.35;;;4.57;;
71566;SDS011;59403;47.456;19.120;2023-04-24T14:26:52;8.25;;;3.97;;
71566;SDS011;59403;47.456;19.120;2023-04-24T14:29:18;6.87;;;4.20;;
71566;SDS011;59403;47.456;19.120;2023-04-24T14:31:45;8.33;;;4.70;;
71566;SDS011;59403;47.456;19.120;2023-04-24T14:34:13;8.35;;;4.82;;